Time;durP1;ratioP1;P1;durP2;ratioP2;P2;SDS_P1;SDS_P2;PMS_P1;PMS_P2;Temp;Humidity;BMP_temperature;BMP_pressure;BME280_temperature;BME280_humidity;BME280_pressure;Samples;Min_cycle;Max_cycle;Signal;HPM_P1;HPM_P2
2022/02/16 00:09:25;;;;;;;5.57;1.80;;;;;;;;;;19754761;30;20076;-60
2022/02/16 00:19:26;;;;;;;7.47;2.20;;;;;;;;;;19754258;30;20120;-58
2022/02/16 00:29:28;;;;;;;6.80;2.55;;;;;;;;;;19825378;30;20079;-57
2022/02/16 00:39:30;;;;;;;6.75;2.05;;;;;;;;;;19826085;30;20505;-60
2022/02/16 00:49:32;;;;;;;5.68;1.80;;;;;;;;;;19825898;30;20558;-59
2022/02/16 00:59:33;;;;;;;4.88;2.13;;;;;;;;;;19823687;29;20055;-57
2022/02/16 01:09:35;;;;;;;6.50;2.10;;;;;;;;;;19823878;30;20055;-60
2022/02/16 01:19:37;;;;;;;5.97;1.65;;;;;;;;;;19823162;29;20098;-56
2022/02/16 01:29:39;;;;;;;6.05;2.03;;;;;;;;;;19823116;30;20047;-56
2022/02/16 01:39:40;;;;;;;3.65;1.80;;;;;;;;;;19821835;30;20438;-60
2022/02/16 01:49:42;;;;;;;4.15;2.03;;;;;;;;;;19821289;30;20074;-60
2022/02/16 01:59:44;;;;;;;8.70;2.58;;;;;;;;;;19820869;30;20213;-56
2022/02/16 02:09:48;;;;;;;4.80;2.30;;;;;;;;;;19820286;30;20086;-57
2022/02/16 02:19:50;;;;;;;5.28;2.22;;;;;;;;;;19819004;29;20063;-60
2022/02/16 02:30:02;;;;;;;5.07;2.45;;;;;;;;;;19818379;30;20107;-57
2022/02/16 02:40:04;;;;;;;6.18;2.83;;;;;;;;;;19817608;30;20055;-55
2022/02/16 02:50:06;;;;;;;5.10;2.17;;;;;;;;;;19817069;30;20072;-55
2022/02/16 03:00:21;;;;;;;8.30;2.20;;;;;;;;;;19816509;30;20094;-59
2022/02/16 03:10:26;;;;;;;6.50;2.30;;;;;;;;;;19816170;30;20051;-55
2022/02/16 03:20:31;;;;;;;5.35;2.30;;;;;;;;;;19816087;29;20067;-56
2022/02/16 03:30:34;;;;;;;10.02;2.20;;;;;;;;;;19837257;29;20062;-55
2022/02/16 03:40:39;;;;;;;6.43;2.67;;;;;;;;;;19839611;30;20094;-55
2022/02/16 03:50:43;;;;;;;3.00;1.60;;;;;;;;;;19839632;30;20055;-58
2022/02/16 04:00:46;;;;;;;6.03;3.13;;;;;;;;;;19839252;30;20093;-58
2022/02/16 04:10:48;;;;;;;4.55;2.55;;;;;;;;;;19838920;30;20051;-57
2022/02/16 04:20:50;;;;;;;5.53;2.10;;;;;;;;;;19838322;29;20552;-54
2022/02/16 04:30:53;;;;;;;5.50;2.10;;;;;;;;;;19837689;30;20051;-59
2022/02/16 04:40:57;;;;;;;5.75;2.55;;;;;;;;;;19827623;29;20059;-61
2022/02/16 04:51:01;;;;;;;5.50;2.35;;;;;;;;;;19825602;30;20104;-59
2022/02/16 05:01:03;;;;;;;6.07;2.10;;;;;;;;;;19824643;30;20413;-59
2022/02/16 05:11:05;;;;;;;5.63;2.10;;;;;;;;;;19824706;30;20072;-55
2022/02/16 05:21:08;;;;;;;5.85;2.50;;;;;;;;;;19823807;29;20075;-61
2022/02/16 05:31:10;;;;;;;6.07;2.30;;;;;;;;;;19824195;30;20047;-56
2022/02/16 05:41:12;;;;;;;3.78;2.03;;;;;;;;;;19824565;30;20055;-56
2022/02/16 05:51:15;;;;;;;7.50;2.35;;;;;;;;;;19821653;29;20106;-54
2022/02/16 06:01:17;;;;;;;6.72;3.10;;;;;;;;;;19821663;30;20116;-59
2022/02/16 06:11:22;;;;;;;;;;;;;;;;;;19820142;30;20078;-55
2022/02/16 06:21:27;;;;;;;6.65;3.53;;;;;;;;;;19819701;29;20391;-57
2022/02/16 06:31:48;;;;;;;8.10;3.10;;;;;;;;;;19818821;30;20541;-54
2022/02/16 06:41:54;;;;;;;11.18;3.67;;;;;;;;;;19816619;30;20093;-56
2022/02/16 06:51:58;;;;;;;13.63;4.55;;;;;;;;;;19815886;30;20579;-56
2022/02/16 07:02:00;;;;;;;16.40;6.28;;;;;;;;;;19815019;30;20080;-57
2022/02/16 07:12:02;;;;;;;17.20;5.32;;;;;;;;;;19815115;30;20047;-57
2022/02/16 07:22:04;;;;;;;14.88;5.38;;;;;;;;;;19814598;29;20146;-59
2022/02/16 07:32:07;;;;;;;19.25;6.90;;;;;;;;;;19814249;30;20532;-58
2022/02/16 07:42:10;;;;;;;22.98;6.40;;;;;;;;;;19814578;30;20051;-58
2022/02/16 07:52:12;;;;;;;12.55;5.55;;;;;;;;;;19813798;30;20058;-58
2022/02/16 08:02:15;;;;;;;20.38;6.65;;;;;;;;;;19813499;30;20134;-58
2022/02/16 08:12:17;;;;;;;25.25;7.53;;;;;;;;;;19818369;29;20193;-58
2022/02/16 08:22:20;;;;;;;21.17;6.78;;;;;;;;;;19825719;29;20109;-54
2022/02/16 08:32:22;;;;;;;14.45;6.25;;;;;;;;;;19825767;30;20062;-56
2022/02/16 08:42:24;;;;;;;12.68;6.22;;;;;;;;;;19825096;30;20120;-55
2022/02/16 08:52:26;;;;;;;15.57;6.25;;;;;;;;;;19825654;30;20055;-54
2022/02/16 09:02:27;;;;;;;20.20;7.78;;;;;;;;;;19823432;30;20059;-58
2022/02/16 09:12:30;;;;;;;15.40;6.53;;;;;;;;;;19823371;30;20097;-63
2022/02/16 09:22:32;;;;;;;17.63;6.18;;;;;;;;;;19800285;29;20063;-59
2022/02/16 09:32:34;;;;;;;9.80;3.70;;;;;;;;;;19819093;30;20145;-57
2022/02/16 09:42:37;;;;;;;7.90;2.67;;;;;;;;;;19817737;30;20063;-56
2022/02/16 09:52:39;;;;;;;8.35;3.53;;;;;;;;;;19817875;30;20074;-57
2022/02/16 10:02:43;;;;;;;9.77;4.00;;;;;;;;;;19801760;30;20481;-59
2022/02/16 10:12:48;;;;;;;7.43;2.92;;;;;;;;;;19816430;30;20517;-58
2022/02/16 10:22:56;;;;;;;3.83;2.10;;;;;;;;;;19816411;29;20146;-62
2022/02/16 10:33:18;;;;;;;4.05;2.20;;;;;;;;;;19815358;29;20059;-65
2022/02/16 10:43:30;;;;;;;4.68;2.13;;;;;;;;;;19812152;30;20070;-62
2022/02/16 10:53:32;;;;;;;3.20;1.80;;;;;;;;;;19814497;30;20051;-61
2022/02/16 11:03:39;;;;;;;3.58;1.75;;;;;;;;;;19815863;30;20055;-63
2022/02/16 11:13:41;;;;;;;5.75;1.58;;;;;;;;;;19815153;30;20059;-69
2022/02/16 11:23:47;;;;;;;5.10;1.35;;;;;;;;;;19814510;29;20063;-65
2022/02/16 11:34:09;;;;;;;4.15;1.10;;;;;;;;;;19814301;30;20096;-66
2022/02/16 11:44:12;;;;;;;4.10;1.10;;;;;;;;;;19813803;29;20128;-57
2022/02/16 11:54:32;;;;;;;2.45;1.20;;;;;;;;;;19830607;29;20058;-60
2022/02/16 12:04:47;;;;;;;6.45;1.63;;;;;;;;;;19828258;29;20066;-63
2022/02/16 12:14:53;;;;;;;2.92;1.13;;;;;;;;;;19827339;29;20059;-66
2022/02/16 12:24:55;;;;;;;2.90;0.90;;;;;;;;;;19826200;29;20150;-62
2022/02/16 12:34:58;;;;;;;3.08;0.75;;;;;;;;;;19826594;30;20417;-65
2022/02/16 12:45:00;;;;;;;5.05;1.40;;;;;;;;;;19825791;29;20051;-61
2022/02/16 12:55:05;;;;;;;2.35;1.33;;;;;;;;;;19819445;29;20136;-61
2022/02/16 13:05:08;;;;;;;4.38;1.10;;;;;;;;;;19820106;29;20051;-59
2022/02/16 13:15:12;;;;;;;29.77;3.30;;;;;;;;;;19820224;30;20570;-58
2022/02/16 13:25:23;;;;;;;9.02;1.50;;;;;;;;;;19815218;29;20101;-67
2022/02/16 13:35:25;;;;;;;1.15;0.80;;;;;;;;;;19816207;30;20515;-64
2022/02/16 13:45:30;;;;;;;3.33;1.30;;;;;;;;;;19821199;30;20051;-59
2022/02/16 13:55:49;;;;;;;2.00;1.07;;;;;;;;;;19819650;30;20488;-61
2022/02/16 14:05:51;;;;;;;4.22;1.00;;;;;;;;;;19819792;30;20112;-62
2022/02/16 14:15:55;;;;;;;3.45;1.00;;;;;;;;;;19818749;29;20492;-63
2022/02/16 14:25:58;;;;;;;4.03;1.10;;;;;;;;;;19816716;30;20055;-62
2022/02/16 14:36:00;;;;;;;2.60;0.95;;;;;;;;;;19816590;30;20108;-65
2022/02/16 14:46:03;;;;;;;2.28;0.85;;;;;;;;;;19817733;30;20051;-61
2022/02/16 14:56:05;;;;;;;2.95;0.85;;;;;;;;;;19815874;30;20059;-58
2022/02/16 15:06:08;;;;;;;1.85;0.95;;;;;;;;;;19816198;30;20561;-58
2022/02/16 15:16:10;;;;;;;1.42;0.80;;;;;;;;;;19814952;30;20052;-61
2022/02/16 15:26:12;;;;;;;2.13;1.20;;;;;;;;;;19813998;30;20440;-59
2022/02/16 15:36:14;;;;;;;1.73;0.90;;;;;;;;;;19814037;30;20047;-62
2022/02/16 15:46:16;;;;;;;1.60;1.00;;;;;;;;;;19813819;30;20138;-62
2022/02/16 15:56:18;;;;;;;2.35;1.25;;;;;;;;;;19813795;30;20508;-62
2022/02/16 16:06:21;;;;;;;3.55;1.25;;;;;;;;;;19812976;30;20066;-61
2022/02/16 16:16:23;;;;;;;4.05;1.30;;;;;;;;;;19813013;30;20061;-61
2022/02/16 16:26:25;;;;;;;3.75;1.40;;;;;;;;;;19812691;30;20479;-62
2022/02/16 16:36:28;;;;;;;2.88;1.48;;;;;;;;;;19822118;29;20055;-62
2022/02/16 16:46:30;;;;;;;3.40;1.27;;;;;;;;;;19824771;30;20108;-60
2022/02/16 16:56:34;;;;;;;2.92;1.10;;;;;;;;;;19823824;30;20066;-59
2022/02/16 17:06:36;;;;;;;2.33;1.35;;;;;;;;;;19822843;30;20142;-61
2022/02/16 17:16:38;;;;;;;3.42;1.40;;;;;;;;;;19822672;30;20413;-59
2022/02/16 17:26:41;;;;;;;4.55;1.25;;;;;;;;;;19820330;30;20501;-59
2022/02/16 17:36:43;;;;;;;3.15;1.95;;;;;;;;;;19820692;30;20132;-61
2022/02/16 17:46:45;;;;;;;2.72;1.15;;;;;;;;;;19819756;29;20226;-62
2022/02/16 17:56:47;;;;;;;2.78;1.13;;;;;;;;;;19818074;30;20059;-60
2022/02/16 18:06:50;;;;;;;2.20;1.20;;;;;;;;;;19819175;29;20416;-61
2022/02/16 18:16:52;;;;;;;2.67;1.63;;;;;;;;;;19817854;30;20130;-61
2022/02/16 18:26:54;;;;;;;1.90;1.10;;;;;;;;;;19802080;29;20063;-60
2022/02/16 18:36:56;;;;;;;3.00;1.67;;;;;;;;;;19817410;30;20059;-63
2022/02/16 18:46:59;;;;;;;3.45;1.20;;;;;;;;;;19813894;30;20094;-66
2022/02/16 18:57:01;;;;;;;2.97;2.10;;;;;;;;;;19797547;29;20055;-69
2022/02/16 19:07:03;;;;;;;4.55;1.90;;;;;;;;;;19814652;30;20055;-61
2022/02/16 19:17:06;;;;;;;3.55;1.98;;;;;;;;;;19813790;30;20058;-62
2022/02/16 19:27:09;;;;;;;2.88;1.65;;;;;;;;;;19813116;30;20146;-60
2022/02/16 19:37:11;;;;;;;5.97;1.92;;;;;;;;;;19814343;30;20417;-65
2022/02/16 19:47:13;;;;;;;2.33;1.52;;;;;;;;;;19812204;30;20094;-61
2022/02/16 19:57:15;;;;;;;2.97;1.52;;;;;;;;;;19813107;30;20490;-61
2022/02/16 20:07:17;;;;;;;3.70;1.92;;;;;;;;;;19817507;29;20059;-60
2022/02/16 20:17:18;;;;;;;3.22;2.53;;;;;;;;;;19811977;30;20060;-61
2022/02/16 20:27:20;;;;;;;5.18;3.40;;;;;;;;;;19826099;30;20055;-60
2022/02/16 20:37:22;;;;;;;3.75;2.53;;;;;;;;;;19825916;30;20078;-59
2022/02/16 20:47:27;;;;;;;5.10;2.53;;;;;;;;;;19825582;30;20059;-61
2022/02/16 20:57:31;;;;;;;4.38;2.10;;;;;;;;;;19825291;30;20062;-59
2022/02/16 21:07:33;;;;;;;4.18;2.72;;;;;;;;;;19824475;30;20055;-61
2022/02/16 21:17:35;;;;;;;3.47;2.55;;;;;;;;;;19822616;29;20130;-61
2022/02/16 21:27:37;;;;;;;5.85;2.72;;;;;;;;;;19822289;30;20486;-62
2022/02/16 21:37:40;;;;;;;3.20;2.45;;;;;;;;;;19822385;30;20501;-60
2022/02/16 21:47:42;;;;;;;5.97;3.65;;;;;;;;;;19821983;30;20143;-60
2022/02/16 21:57:43;;;;;;;5.07;2.72;;;;;;;;;;19820598;30;20055;-60
2022/02/16 22:07:46;;;;;;;5.45;2.80;;;;;;;;;;19803935;30;20106;-61
2022/02/16 22:17:48;;;;;;;5.38;3.13;;;;;;;;;;19819128;30;20142;-59
2022/02/16 22:27:49;;;;;;;4.40;2.50;;;;;;;;;;19818140;29;20144;-60
2022/02/16 22:37:51;;;;;;;3.88;2.90;;;;;;;;;;19818396;30;20565;-59
2022/02/16 22:47:54;;;;;;;4.40;2.72;;;;;;;;;;19818372;30;20051;-60
2022/02/16 22:57:56;;;;;;;4.75;3.10;;;;;;;;;;19816860;30;20058;-62
2022/02/16 23:18:18;;;;;;;5.68;3.30;;;;;;;;;;19815780;30;20085;-62
2022/02/16 23:28:20;;;;;;;7.25;4.10;;;;;;;;;;19815028;30;20067;-60
2022/02/16 23:38:22;;;;;;;5.00;3.97;;;;;;;;;;19815178;30;20059;-60
2022/02/16 23:48:24;;;;;;;4.45;3.63;;;;;;;;;;19829199;29;20557;-61
2022/02/16 23:58:27;;;;;;;6.05;3.40;;;;;;;;;;19829273;30;20062;-61
